地図

経路データ

SID SEASON NUMBER BASIN SUBBASIN NAME ISO_TIME NATURE LAT LON WMO_WIND WMO_PRES WMO_AGENCY TRACK_TYPE DIST2LAND LANDFALL IFLAG USA_AGENCY USA_ATCF_ID USA_LAT USA_LON USA_RECORD USA_STATUS USA_WIND USA_PRES USA_SSHS USA_R34_NE USA_R34_SE USA_R34_SW USA_R34_NW USA_R50_NE USA_R50_SE USA_R50_SW USA_R50_NW USA_R64_NE USA_R64_SE USA_R64_SW USA_R64_NW USA_POCI USA_ROCI USA_RMW USA_EYE TOKYO_LAT TOKYO_LON TOKYO_GRADE TOKYO_WIND TOKYO_PRES TOKYO_R50_DIR TOKYO_R50_LONG TOKYO_R50_SHORT TOKYO_R30_DIR TOKYO_R30_LONG TOKYO_R30_SHORT TOKYO_LAND CMA_LAT CMA_LON CMA_CAT CMA_WIND CMA_PRES HKO_LAT HKO_LON HKO_CAT HKO_WIND HKO_PRES NEWDELHI_LAT NEWDELHI_LON NEWDELHI_GRADE NEWDELHI_WIND NEWDELHI_PRES NEWDELHI_CI NEWDELHI_DP NEWDELHI_POCI REUNION_LAT REUNION_LON REUNION_TYPE REUNION_WIND REUNION_PRES REUNION_TNUM REUNION_CI REUNION_RMW REUNION_R34_NE REUNION_R34_SE REUNION_R34_SW REUNION_R34_NW REUNION_R50_NE REUNION_R50_SE REUNION_R50_SW REUNION_R50_NW REUNION_R64_NE REUNION_R64_SE REUNION_R64_SW REUNION_R64_NW BOM_LAT BOM_LON BOM_TYPE BOM_WIND BOM_PRES BOM_TNUM BOM_CI BOM_RMW BOM_R34_NE BOM_R34_SE BOM_R34_SW BOM_R34_NW BOM_R50_NE BOM_R50_SE BOM_R50_SW BOM_R50_NW BOM_R64_NE BOM_R64_SE BOM_R64_SW BOM_R64_NW BOM_ROCI BOM_POCI BOM_EYE BOM_POS_METHOD BOM_PRES_METHOD NADI_LAT NADI_LON NADI_CAT NADI_WIND NADI_PRES WELLINGTON_LAT WELLINGTON_LON WELLINGTON_WIND WELLINGTON_PRES DS824_LAT DS824_LON DS824_STAGE DS824_WIND DS824_PRES TD9636_LAT TD9636_LON TD9636_STAGE TD9636_WIND TD9636_PRES TD9635_LAT TD9635_LON TD9635_WIND TD9635_PRES TD9635_ROCI NEUMANN_LAT NEUMANN_LON NEUMANN_CLASS NEUMANN_WIND NEUMANN_PRES MLC_LAT MLC_LON MLC_CLASS MLC_WIND MLC_PRES USA_GUST BOM_GUST BOM_GUST_PER REUNION_GUST REUNION_GUST_PER USA_SEAHGT USA_SEARAD_NE USA_SEARAD_SE USA_SEARAD_SW USA_SEARAD_NW STORM_SPEED STORM_DIR
1922048S28163 1922 18 SP MM NOT_NAMED 1922-02-17 03:00:00 NR -27.6209 163.215 spur-other 674 659 ______________ -1 3 58
1922048S28163 1922 18 SP MM NOT_NAMED 1922-02-17 06:00:00 NR -27.5432 163.353 spur-other 654 645 ______________ -1 3 44
1922048S28163 1922 18 SP MM NOT_NAMED 1922-02-17 09:00:00 NR -27.4096 163.446 spur-other 645 630 ______________ -1 3 29
1922048S28163 1922 18 SP MM NOT_NAMED 1922-02-17 11:00:00 NR -27.3000 163.500 spur-other 630 630 __________O___ -1 -27.3000 163.500 7 4 31
1922048S28163 1922 18 SP MM NOT_NAMED 1922-02-17 12:00:00 NR -27.2513 163.553 spur-other 625 601 __________P___ -1 -27.2367 163.554 7 4 39
1922048S28163 1922 18 SP MM NOT_NAMED 1922-02-17 15:00:00 NR -27.0782 163.704 spur-other 601 577 __________P___ -1 -27.0454 163.705 7 5 33
1922048S28163 1922 18 SP MM NOT_NAMED 1922-02-17 18:00:00 NR -26.8743 163.827 spur-other 577 552 __________P___ -1 -26.8489 163.827 7 5 22
1922048S28163 1922 18 SP MM NOT_NAMED 1922-02-17 21:00:00 NR -26.6521 163.896 spur-other 552 533 __________P___ -1 -26.6436 163.895 7 5 10
1922048S28163 1922 18 SP MM NOT_NAMED 1922-02-17 23:00:00 NR -26.5000 163.900 spur-other 533 523 __________O___ -1 -26.5000 163.900 7 5 354
1922048S28163 1922 18 SP MM NOT_NAMED 1922-02-18 00:00:00 NR -26.4259 163.888 spur-other 523 509 __________P___ -1 -26.4259 163.888 7 5 343
1922048S28163 1922 18 SP MM NOT_NAMED 1922-02-18 03:00:00 NR -26.1969 163.800 spur-other 509 495 __________P___ -1 -26.1969 163.800 7 5 335
1922048S28163 1922 18 SP MM NOT_NAMED 1922-02-18 06:00:00 NR -25.9656 163.648 spur-other 501 489 __________P___ -1 -25.9656 163.648 7 6 325
1922048S28163 1922 18 SP MM NOT_NAMED 1922-02-18 09:00:00 NR -25.7411 163.449 spur-other 486 483 __________P___ -1 -25.7411 163.449 7 6 319
1922048S28163 1922 18 SP MM NOT_NAMED 1922-02-18 11:00:00 NR -25.6000 163.300 spur-other 483 474 __________O___ -1 -25.6000 163.300 7 5 319
1922048S28163 1922 18 SP MM NOT_NAMED 1922-02-18 12:00:00 NR -25.5346 163.250 spur-other 474 472 __________P___ -1 -25.5346 163.250 7 5 322
1922048S28163 1922 18 SP MM NOT_NAMED 1922-02-18 15:00:00 NR -25.3494 163.086 spur-other 469 465 __________P___ -1 -25.3494 163.086 7 5 316
1922048S28163 1922 18 SP MM NOT_NAMED 1922-02-18 18:00:00 NR -25.1765 162.872 spur-other 470 465 __________P___ -1 -25.1765 162.872 7 6 306
1922048S28163 1922 18 SP MM NOT_NAMED 1922-02-18 21:00:00 NR -25.0102 162.569 spur-other 465 465 __________P___ -1 -25.0102 162.569 7 7 298
1922048S28163 1922 18 SP MM NOT_NAMED 1922-02-18 23:00:00 NR -24.9000 162.300 spur-other 472 469 __________O___ -1 -24.9000 162.300 7 9 294
1922048S28163 1922 18 SP MM NOT_NAMED 1922-02-19 00:00:00 NR -24.8346 162.139 spur-other 475 475 __________P___ -1 -24.8346 162.139 7 11 292
1922048S28163 1922 18 SP MM NOT_NAMED 1922-02-19 03:00:00 NR -24.6349 161.569 spur-other 491 491 __________P___ -1 -24.6349 161.569 7 12 289
1922048S28163 1922 18 SP MM NOT_NAMED 1922-02-19 06:00:00 NR -24.4447 160.903 spur-other 529 529 __________P___ -1 -24.4447 160.903 7 13 286
1922048S28163 1922 18 SP MM NOT_NAMED 1922-02-19 09:00:00 NR -24.2826 160.186 spur-other 580 580 __________P___ -1 -24.2826 160.186 7 13 283
1922048S28163 1922 18 SP EA NOT_NAMED 1922-02-19 11:00:00 NR -24.2000 159.700 spur-other 614 614 __________O___ -1 -24.2000 159.700 7 13 280
1922048S28163 1922 18 SP EA NOT_NAMED 1922-02-19 12:00:00 NR -24.1691 159.465 spur-other 622 554 __________P___ -1 -24.1683 159.459 7 13 276
1922048S28163 1922 18 SP EA NOT_NAMED 1922-02-19 15:00:00 NR -24.1087 158.746 spur-other 545 485 __________P___ -1 -24.1082 158.748 7 13 274
1922048S28163 1922 18 SP EA NOT_NAMED 1922-02-19 18:00:00 NR -24.0865 158.025 spur-other 475 416 __________P___ -1 -24.0882 158.050 7 13 271
1922048S28163 1922 18 SP EA NOT_NAMED 1922-02-19 21:00:00 NR -24.0897 157.332 spur-other 406 367 __________P___ -1 -24.0921 157.359 7 12 269
1922048S28163 1922 18 SP EA NOT_NAMED 1922-02-19 23:00:00 NR -24.1000 156.900 spur-other 367 348 __________O___ -1 -24.1000 156.900 7 12 269
1922048S28163 1922 18 SP EA NOT_NAMED 1922-02-20 00:00:00 NR -24.1035 156.702 spur-other 348 300 ______________ -1 7 10 268
1922048S28163 1922 18 SP EA NOT_NAMED 1922-02-20 03:00:00 NR -24.1266 156.145 spur-other 290 ______________ -1 7 10 267

デジタル台風データ・検索

IBTrACS Databaseについて

本データベースは、米国NOAAが公開する1842年以降の世界の熱帯低気圧のベストトラックデータアーカイブInternational Best Track Archive for Climate Stewardship (IBTrACS)を、ウェブで閲覧しやすい形式に変換したものです。

最終更新日:2021-10-08